Time;durP1;ratioP1;P1;durP2;ratioP2;P2;SDS_P1;SDS_P2;PMS_P1;PMS_P2;Temp;Humidity;BMP_temperature;BMP_pressure;BME280_temperature;BME280_humidity;BME280_pressure;Samples;Min_cycle;Max_cycle;Signal;HPM_P1;HPM_P2
2022/08/26 00:01:23;;;;;;;6.23;2.53;;;21.60;97.30;;;;;;4966620;28;20423;-89
2022/08/26 00:03:49;;;;;;;8.37;3.17;;;21.60;97.30;;;;;;4951911;28;20827;-89
2022/08/26 00:06:15;;;;;;;4.50;3.20;;;21.50;97.30;;;;;;4947257;28;20179;-89
2022/08/26 00:08:40;;;;;;;4.67;2.47;;;21.50;97.30;;;;;;4947304;28;20287;-88
2022/08/26 00:11:07;;;;;;;10.13;4.70;;;21.50;97.30;;;;;;4947409;28;20200;-89
2022/08/26 00:13:33;;;;;;;4.43;2.63;;;21.50;97.30;;;;;;4947257;28;20322;-89
2022/08/26 00:15:59;;;;;;;5.30;3.30;;;21.50;97.30;;;;;;4932808;29;20408;-89
2022/08/26 00:18:26;;;;;;;9.80;5.07;;;21.50;97.30;;;;;;4947428;28;20489;-89
2022/08/26 00:20:51;;;;;;;4.10;2.90;;;21.40;97.30;;;;;;4947168;28;20423;-90
2022/08/26 00:23:17;;;;;;;8.30;3.20;;;21.40;97.30;;;;;;4947265;28;20424;-89
2022/08/26 00:25:42;;;;;;;9.23;4.70;;;21.40;97.30;;;;;;4947334;28;20176;-89
2022/08/26 00:28:11;;;;;;;5.73;5.40;;;21.40;97.30;;;;;;4947093;28;20199;-88
2022/08/26 00:30:37;;;;;;;11.73;4.73;;;21.40;97.30;;;;;;4947253;28;20214;-89
2022/08/26 00:33:04;;;;;;;9.73;5.20;;;21.30;97.30;;;;;;4947030;28;20469;-89
2022/08/26 00:35:30;;;;;;;3.57;3.10;;;21.30;97.30;;;;;;4946307;28;20423;-89
2022/08/26 00:37:56;;;;;;;10.87;3.30;;;21.30;97.30;;;;;;4947066;28;20415;-89
2022/08/26 00:40:34;;;;;;;5.00;3.70;;;21.30;97.30;;;;;;4947256;28;20475;-88
2022/08/26 00:43:01;;;;;;;6.20;3.53;;;21.30;97.30;;;;;;4932468;28;20420;-89
2022/08/26 00:45:30;;;;;;;6.23;4.40;;;21.20;97.30;;;;;;4947281;28;20477;-89
2022/08/26 00:48:00;;;;;;;8.50;4.20;;;21.20;97.30;;;;;;4962840;28;20918;-89
2022/08/26 00:50:30;;;;;;;11.57;5.53;;;21.20;97.30;;;;;;4946609;28;20498;-90
2022/08/26 00:52:58;;;;;;;9.93;4.00;;;21.20;97.30;;;;;;4946933;28;20473;-89
2022/08/26 00:55:35;;;;;;;5.23;4.63;;;21.20;97.30;;;;;;4946842;28;20459;-89
2022/08/26 00:58:01;;;;;;;3.50;2.23;;;21.10;97.30;;;;;;4950016;28;20411;-89
2022/08/26 01:00:32;;;;;;;6.10;3.50;;;21.10;97.30;;;;;;4981641;28;20429;-89
2022/08/26 01:03:00;;;;;;;12.30;3.70;;;21.10;97.30;;;;;;4965838;28;20246;-89
2022/08/26 01:05:27;;;;;;;8.90;5.00;;;21.00;97.30;;;;;;4951016;28;20511;-89
2022/08/26 01:07:53;;;;;;;4.33;3.27;;;21.00;97.30;;;;;;4965726;28;20522;-89
2022/08/26 01:10:23;;;;;;;13.80;5.30;;;21.00;97.30;;;;;;4965699;28;20554;-89
2022/08/26 01:12:57;;;;;;;6.20;3.40;;;21.00;97.30;;;;;;4965705;28;20179;-90
2022/08/26 01:15:34;;;;;;;4.87;3.33;;;21.00;97.30;;;;;;4965808;28;20420;-89
2022/08/26 01:18:00;;;;;;;3.67;2.37;;;21.00;97.30;;;;;;4965847;28;20468;-89
2022/08/26 01:20:41;;;;;;;12.00;4.90;;;21.00;97.30;;;;;;4965991;28;20993;-89
2022/08/26 01:23:09;;;;;;;5.37;3.57;;;21.00;97.30;;;;;;4949472;28;20429;-89
2022/08/26 01:25:40;;;;;;;9.80;3.97;;;21.00;97.30;;;;;;4965483;28;20419;-89
2022/08/26 01:28:12;;;;;;;5.53;3.40;;;20.90;97.30;;;;;;4965694;28;20451;-89
2022/08/26 01:30:40;;;;;;;7.13;4.10;;;20.90;97.30;;;;;;4965543;28;20466;-89
2022/08/26 01:33:11;;;;;;;5.83;4.00;;;20.90;97.30;;;;;;4966058;28;20472;-89
2022/08/26 01:35:37;;;;;;;8.50;4.20;;;20.90;97.30;;;;;;4966148;28;20422;-89
2022/08/26 01:38:03;;;;;;;8.80;4.10;;;20.90;97.30;;;;;;4965729;28;20423;-90
2022/08/26 01:40:32;;;;;;;8.80;3.63;;;20.90;97.30;;;;;;4949419;28;20190;-89
2022/08/26 01:43:01;;;;;;;6.87;5.27;;;20.90;97.30;;;;;;4950568;28;20411;-89
2022/08/26 01:45:30;;;;;;;4.43;2.97;;;20.90;97.30;;;;;;4950162;28;20423;-89
2022/08/26 01:47:58;;;;;;;9.43;3.53;;;20.90;97.30;;;;;;4965043;28;20426;-89
2022/08/26 01:50:27;;;;;;;6.43;4.47;;;20.80;97.30;;;;;;4965073;28;20628;-89
2022/08/26 01:52:53;;;;;;;4.83;3.60;;;20.80;97.30;;;;;;4965600;28;20422;-89
2022/08/26 01:55:22;;;;;;;8.80;4.93;;;20.80;97.30;;;;;;4965314;28;20434;-89
2022/08/26 01:57:53;;;;;;;7.33;3.03;;;20.80;97.30;;;;;;4949098;28;20430;-89
2022/08/26 02:00:19;;;;;;;7.87;5.03;;;20.80;97.30;;;;;;4951711;28;20934;-89
2022/08/26 02:02:48;;;;;;;8.03;3.77;;;20.70;97.30;;;;;;4965771;28;20453;-89
2022/08/26 02:05:17;;;;;;;3.83;3.03;;;20.70;97.30;;;;;;5033122;28;20419;-89
2022/08/26 02:07:43;;;;;;;10.23;4.97;;;20.70;97.30;;;;;;4965225;28;20427;-90
2022/08/26 02:10:10;;;;;;;6.10;3.07;;;20.70;97.30;;;;;;4964930;28;20509;-90
2022/08/26 02:12:36;;;;;;;12.93;4.43;;;20.70;97.30;;;;;;4965173;28;21120;-89
2022/08/26 02:15:06;;;;;;;17.27;5.23;;;20.70;97.30;;;;;;4949123;28;20509;-89
2022/08/26 02:17:37;;;;;;;22.53;7.47;;;20.70;97.30;;;;;;4965056;28;20466;-89
2022/08/26 02:20:44;;;;;;;4.20;3.13;;;20.70;97.30;;;;;;4962394;28;20457;-89
2022/08/26 02:23:15;;;;;;;18.27;4.13;;;20.70;97.30;;;;;;4965308;28;20449;-89
2022/08/26 02:26:13;;;;;;;7.07;4.07;;;20.70;97.30;;;;;;4981381;28;20437;-89
2022/08/26 02:29:13;;;;;;;15.87;3.73;;;20.60;97.30;;;;;;4988560;28;20445;-89
2022/08/26 02:31:54;;;;;;;6.73;3.30;;;20.60;97.30;;;;;;5028061;28;20536;-89
2022/08/26 02:34:35;;;;;;;6.53;4.50;;;20.60;97.30;;;;;;5011887;28;20756;-89
2022/08/26 02:38:15;;;;;;;8.83;4.07;;;20.60;97.30;;;;;;4959083;28;20427;-89
2022/08/26 02:40:24;;;;;;;9.70;5.10;;;20.70;97.30;;;;;;4959770;28;20472;-89
2022/08/26 02:43:03;;;;;;;8.00;4.57;;;20.70;97.30;;;;;;4981002;28;20528;-89
2022/08/26 02:45:55;;;;;;;7.07;3.60;;;20.70;97.30;;;;;;4980831;28;20410;-89
2022/08/26 02:48:23;;;;;;;5.03;3.60;;;20.70;97.30;;;;;;4964786;28;20459;-89
2022/08/26 02:50:55;;;;;;;7.40;4.47;;;20.70;97.30;;;;;;4980713;28;20513;-91
2022/08/26 02:53:23;;;;;;;6.33;5.20;;;20.70;97.30;;;;;;4980709;28;20425;-89
2022/08/26 02:56:14;;;;;;;9.80;6.23;;;20.70;97.30;;;;;;4980908;28;20415;-90
2022/08/26 02:58:53;;;;;;;4.50;4.20;;;20.70;97.30;;;;;;4983552;28;20465;-89
2022/08/26 03:04:14;;;;;;;9.23;6.47;;;20.70;97.30;;;;;;4963218;28;20423;-89
2022/08/26 03:06:43;;;;;;;10.73;4.07;;;20.70;97.30;;;;;;4983642;28;20435;-89
2022/08/26 03:09:34;;;;;;;10.67;4.33;;;20.70;97.30;;;;;;4967430;28;20445;-89
2022/08/26 03:12:03;;;;;;;12.83;6.10;;;20.70;97.30;;;;;;4951894;28;20485;-88
2022/08/26 03:14:33;;;;;;;11.00;5.37;;;20.60;97.30;;;;;;4967795;28;20411;-89
2022/08/26 03:16:59;;;;;;;5.67;3.83;;;20.60;97.30;;;;;;4968007;28;20806;-89
2022/08/26 03:19:24;;;;;;;4.97;4.43;;;20.60;97.30;;;;;;4967549;28;20438;-89
2022/08/26 03:21:52;;;;;;;8.43;5.10;;;20.50;97.30;;;;;;4951323;28;20179;-90
2022/08/26 03:24:18;;;;;;;7.27;4.50;;;20.50;97.30;;;;;;4967666;28;20297;-89
2022/08/26 03:26:44;;;;;;;5.90;4.30;;;20.50;97.30;;;;;;4968462;28;20411;-89
2022/08/26 03:31:54;;;;;;;8.60;6.20;;;20.50;97.30;;;;;;4953715;28;20422;-89
2022/08/26 03:34:20;;;;;;;4.70;3.60;;;20.50;97.30;;;;;;4968373;28;20787;-89
2022/08/26 03:36:45;;;;;;;9.07;4.00;;;20.40;97.30;;;;;;4967503;28;20650;-89
2022/08/26 03:39:12;;;;;;;8.47;3.93;;;20.40;97.30;;;;;;4952366;28;20290;-90
2022/08/26 03:41:39;;;;;;;8.07;4.83;;;20.40;97.30;;;;;;4967199;28;20187;-90
2022/08/26 03:44:07;;;;;;;9.23;4.03;;;20.30;97.30;;;;;;4967448;28;20509;-88
2022/08/26 03:46:33;;;;;;;48.40;5.63;;;20.30;97.30;;;;;;4967243;28;20508;-89
2022/08/26 03:49:00;;;;;;;6.63;5.27;;;20.30;97.30;;;;;;4966852;28;20812;-90
2022/08/26 03:51:26;;;;;;;6.90;3.70;;;20.20;97.30;;;;;;4967270;28;20536;-89
2022/08/26 03:53:52;;;;;;;9.60;5.60;;;20.20;97.30;;;;;;4967309;28;20851;-89
2022/08/26 03:56:17;;;;;;;9.43;4.77;;;20.20;97.30;;;;;;4967176;28;20187;-90
2022/08/26 03:58:43;;;;;;;5.13;3.63;;;20.20;97.30;;;;;;4967306;28;20203;-90
2022/08/26 04:01:10;;;;;;;8.13;4.23;;;20.20;97.30;;;;;;4967489;28;20187;-89
2022/08/26 04:06:19;;;;;;;7.47;3.93;;;20.10;97.30;;;;;;4952260;28;20523;-90
2022/08/26 04:08:45;;;;;;;9.97;6.23;;;20.10;97.30;;;;;;4966899;28;20534;-89
2022/08/26 04:11:17;;;;;;;10.97;5.17;;;20.10;97.30;;;;;;4966870;28;20195;-89
2022/08/26 04:13:43;;;;;;;9.17;5.87;;;20.10;97.30;;;;;;4966997;28;20175;-89
2022/08/26 04:16:08;;;;;;;6.40;3.80;;;20.10;97.30;;;;;;4966928;28;20441;-89
2022/08/26 04:18:36;;;;;;;8.37;4.20;;;20.10;97.30;;;;;;4966832;28;20191;-89
2022/08/26 04:21:04;;;;;;;7.03;5.33;;;20.00;97.30;;;;;;4966577;28;20271;-88
2022/08/26 04:23:35;;;;;;;7.20;4.23;;;20.00;97.30;;;;;;4966331;28;20427;-89
2022/08/26 04:26:19;;;;;;;11.30;4.57;;;20.00;97.30;;;;;;4966313;28;20510;-88
2022/08/26 04:29:05;;;;;;;5.83;3.20;;;20.00;97.30;;;;;;4966217;28;20529;-89
2022/08/26 04:31:54;;;;;;;7.30;4.67;;;20.00;97.30;;;;;;4982018;28;20608;-89
2022/08/26 04:34:55;;;;;;;9.50;4.70;;;19.90;97.30;;;;;;4961379;28;20423;-90
2022/08/26 04:37:24;;;;;;;16.20;8.30;;;19.90;97.30;;;;;;4969240;28;20800;-89
2022/08/26 04:40:03;;;;;;;7.67;5.10;;;19.90;97.30;;;;;;4982477;28;20446;-89
2022/08/26 04:42:35;;;;;;;8.17;4.93;;;19.90;97.30;;;;;;4982680;28;20484;-89
2022/08/26 04:45:04;;;;;;;7.17;4.10;;;19.90;97.30;;;;;;4982669;28;20423;-89
2022/08/26 04:47:55;;;;;;;6.63;4.10;;;19.90;97.30;;;;;;4982785;28;20662;-89
2022/08/26 04:50:24;;;;;;;18.93;5.67;;;19.90;97.30;;;;;;4982758;28;20501;-89
2022/08/26 04:53:03;;;;;;;7.73;4.80;;;19.90;97.30;;;;;;4982301;28;20922;-89
2022/08/26 04:55:35;;;;;;;4.33;3.30;;;20.00;97.30;;;;;;4982736;28;20434;-89
2022/08/26 04:58:34;;;;;;;13.83;5.63;;;20.00;97.30;;;;;;4982252;28;20430;-89
2022/08/26 05:01:04;;;;;;;12.70;5.63;;;20.00;97.30;;;;;;4982493;28;20477;-89
2022/08/26 05:03:35;;;;;;;8.70;6.10;;;20.00;97.30;;;;;;4982724;28;20431;-88
2022/08/26 05:06:04;;;;;;;8.70;5.23;;;20.00;97.30;;;;;;4982475;28;20427;-89
2022/08/26 05:08:33;;;;;;;7.17;5.17;;;20.00;97.30;;;;;;4965478;28;20451;-89
2022/08/26 05:11:05;;;;;;;9.60;5.10;;;20.10;97.30;;;;;;4966057;28;20474;-89
2022/08/26 05:13:36;;;;;;;7.90;4.10;;;20.10;97.30;;;;;;4965762;28;20425;-89
2022/08/26 05:16:14;;;;;;;11.10;6.63;;;20.20;97.30;;;;;;4965870;28;20481;-89
2022/08/26 05:18:44;;;;;;;8.03;6.03;;;20.20;97.30;;;;;;4965615;28;20439;-89
2022/08/26 05:21:33;;;;;;;10.20;5.13;;;20.20;97.30;;;;;;4965314;28;20515;-89
2022/08/26 05:24:05;;;;;;;10.40;4.90;;;20.30;97.30;;;;;;4965691;28;20431;-89
2022/08/26 05:26:33;;;;;;;19.23;8.50;;;20.30;97.30;;;;;;4965855;28;20437;-89
2022/08/26 05:29:05;;;;;;;11.03;5.20;;;20.40;97.30;;;;;;4965283;28;20454;-89
2022/08/26 05:31:34;;;;;;;27.73;8.40;;;20.40;97.30;;;;;;4965723;28;20470;-90
2022/08/26 05:34:15;;;;;;;11.23;6.77;;;20.50;97.30;;;;;;4965368;28;20997;-89
2022/08/26 05:36:43;;;;;;;10.60;4.90;;;20.50;97.30;;;;;;4965682;28;20433;-89
2022/08/26 05:39:26;;;;;;;;;;;;;;;;;;;;;
2022/08/26 05:41:55;;;;;;;7.63;4.40;;;20.60;97.30;;;;;;4950867;28;20425;-89
2022/08/26 05:44:24;;;;;;;9.70;4.90;;;20.60;97.30;;;;;;4965719;28;20517;-89
2022/08/26 05:47:04;;;;;;;11.03;5.40;;;20.70;97.30;;;;;;4965752;28;20415;-90
2022/08/26 05:50:04;;;;;;;;;;;;;;;;;;;;;
2022/08/26 05:52:43;;;;;;;16.13;6.00;;;20.70;97.30;;;;;;4949034;28;20439;-89
2022/08/26 05:55:15;;;;;;;8.57;5.20;;;20.80;97.30;;;;;;4965637;28;20427;-89
2022/08/26 05:57:54;;;;;;;9.27;5.27;;;20.80;97.30;;;;;;4965485;28;20848;-89
2022/08/26 06:00:23;;;;;;;21.37;7.10;;;20.80;97.30;;;;;;4965162;28;20419;-89
2022/08/26 06:02:55;;;;;;;14.13;6.47;;;20.90;97.30;;;;;;4965538;28;20431;-89
2022/08/26 06:05:28;;;;;;;10.60;6.17;;;20.90;97.30;;;;;;4964846;28;20889;-89
2022/08/26 06:11:24;;;;;;;17.17;6.20;;;20.90;97.30;;;;;;4950448;28;20473;-90
2022/08/26 06:17:24;;;;;;;14.33;6.50;;;21.00;97.30;;;;;;4963248;28;20457;-89
2022/08/26 06:20:15;;;;;;;12.50;5.77;;;21.00;97.30;;;;;;4964904;28;20470;-89
2022/08/26 06:26:14;;;;;;;11.23;6.90;;;21.10;97.30;;;;;;4950202;28;20413;-89
2022/08/26 06:28:44;;;;;;;7.07;4.87;;;21.20;97.30;;;;;;4956777;28;20447;-90
2022/08/26 06:31:15;;;;;;;14.07;6.17;;;21.20;97.30;;;;;;4981352;28;20557;-89
2022/08/26 06:34:04;;;;;;;16.53;6.00;;;21.20;97.30;;;;;;4983756;28;20421;-89
2022/08/26 06:36:43;;;;;;;7.07;5.23;;;21.30;97.30;;;;;;4959504;28;20554;-89
2022/08/26 06:39:25;;;;;;;16.27;7.20;;;21.30;97.30;;;;;;4984441;28;21063;-89
2022/08/26 06:41:54;;;;;;;17.03;6.20;;;21.40;97.30;;;;;;4984798;28;20473;-90
2022/08/26 06:44:34;;;;;;;9.20;6.17;;;21.40;97.30;;;;;;4984309;28;20441;-88
2022/08/26 06:47:35;;;;;;;27.30;7.77;;;21.50;97.30;;;;;;4984239;28;20434;-90
2022/08/26 06:50:04;;;;;;;15.93;6.30;;;21.50;97.30;;;;;;4951753;28;20857;-89
2022/08/26 06:52:35;;;;;;;13.83;6.13;;;21.60;97.30;;;;;;4984400;28;20411;-89
2022/08/26 06:55:01;;;;;;;10.13;5.43;;;21.60;97.30;;;;;;4984126;28;20700;-90
2022/08/26 06:57:27;;;;;;;15.40;7.80;;;21.60;97.30;;;;;;4984352;28;20925;-89
2022/08/26 06:59:52;;;;;;;13.27;6.73;;;21.70;97.30;;;;;;4983546;28;20203;-90
2022/08/26 07:02:19;;;;;;;15.13;6.97;;;21.70;97.30;;;;;;4983917;28;20433;-89
2022/08/26 07:04:44;;;;;;;8.50;5.40;;;21.80;97.30;;;;;;4983951;28;20186;-89
2022/08/26 07:07:13;;;;;;;6.90;5.00;;;21.80;97.30;;;;;;4983559;28;20434;-90
2022/08/26 07:09:39;;;;;;;18.10;8.23;;;21.80;97.30;;;;;;4967202;28;20202;-90
2022/08/26 07:12:05;;;;;;;18.60;7.73;;;21.90;97.30;;;;;;4967334;28;20936;-89
2022/08/26 07:14:33;;;;;;;11.40;6.10;;;22.00;97.30;;;;;;4967518;28;20183;-89
2022/08/26 07:17:00;;;;;;;11.93;6.10;;;22.00;97.30;;;;;;4967653;28;20189;-89
2022/08/26 07:19:25;;;;;;;7.47;5.67;;;22.10;97.30;;;;;;4967044;28;20449;-89
2022/08/26 07:21:51;;;;;;;12.37;7.97;;;22.10;97.30;;;;;;4967240;28;20426;-89
2022/08/26 07:24:17;;;;;;;7.83;5.73;;;22.20;97.30;;;;;;4967036;28;20183;-89
2022/08/26 07:26:42;;;;;;;24.40;6.30;;;22.30;97.30;;;;;;4967340;28;20284;-89
2022/08/26 07:29:07;;;;;;;12.87;7.20;;;22.30;97.30;;;;;;4966864;28;20209;-89
2022/08/26 07:31:36;;;;;;;10.50;6.43;;;22.40;97.30;;;;;;4966932;28;20203;-89
2022/08/26 07:34:03;;;;;;;8.77;5.00;;;22.50;97.30;;;;;;4967202;28;20180;-89
2022/08/26 07:36:29;;;;;;;10.30;5.57;;;22.60;97.30;;;;;;4966830;28;20427;-89
2022/08/26 07:38:55;;;;;;;11.77;6.37;;;22.60;97.30;;;;;;4966779;28;20439;-89
2022/08/26 07:41:23;;;;;;;7.73;5.50;;;22.70;97.30;;;;;;4951787;28;20431;-89
2022/08/26 07:43:50;;;;;;;11.57;7.37;;;22.70;97.30;;;;;;4966408;28;20427;-89
2022/08/26 07:46:18;;;;;;;12.63;5.00;;;22.80;97.30;;;;;;4966670;28;20434;-89
2022/08/26 07:48:46;;;;;;;13.60;7.70;;;22.80;97.30;;;;;;4966493;28;20988;-89
2022/08/26 07:51:16;;;;;;;21.60;6.30;;;22.80;97.30;;;;;;4966167;28;20479;-89
2022/08/26 07:53:43;;;;;;;12.70;5.77;;;22.90;97.30;;;;;;4951785;28;20822;-89
2022/08/26 07:56:18;;;;;;;9.93;5.57;;;22.90;97.30;;;;;;4951679;28;20932;-87
2022/08/26 07:58:46;;;;;;;9.10;5.30;;;22.90;97.30;;;;;;4951210;28;20434;-89
2022/08/26 08:01:15;;;;;;;10.03;5.20;;;23.00;97.30;;;;;;4967573;28;20434;-90
2022/08/26 08:03:43;;;;;;;11.60;4.63;;;23.00;97.30;;;;;;4966635;28;20434;-89
2022/08/26 08:06:16;;;;;;;8.60;6.07;;;23.10;97.30;;;;;;4966538;28;20487;-90
2022/08/26 08:08:46;;;;;;;7.17;5.27;;;23.20;97.30;;;;;;4966055;28;20461;-89
2022/08/26 08:11:14;;;;;;;15.17;8.50;;;23.30;97.30;;;;;;4966040;28;20490;-90
2022/08/26 08:13:55;;;;;;;11.03;5.93;;;23.30;97.30;;;;;;4966412;28;20427;-89
2022/08/26 08:17:13;;;;;;;9.50;5.60;;;23.40;97.30;;;;;;5034595;28;20499;-89
2022/08/26 08:19:49;;;;;;;;;;;;;;;;;;;;;
2022/08/26 08:22:34;;;;;;;8.60;5.03;;;23.60;97.30;;;;;;4951296;28;20423;-89
2022/08/26 08:25:06;;;;;;;18.30;7.20;;;23.70;97.30;;;;;;4966127;28;20953;-89
2022/08/26 08:27:47;;;;;;;13.70;6.40;;;23.80;97.30;;;;;;4951398;28;20430;-90
2022/08/26 08:30:47;;;;;;;;;;;;;;;;;;;;;
2022/08/26 08:33:16;;;;;;;14.67;5.87;;;23.90;97.30;;;;;;4955739;28;20426;-89
2022/08/26 08:35:45;;;;;;;10.53;5.83;;;23.90;97.30;;;;;;4965752;28;20480;-89
2022/08/26 08:45:06;;;;;;;27.30;5.70;;;24.10;97.30;;;;;;4960893;28;20844;-90
2022/08/26 08:48:15;;;;;;;7.20;4.57;;;24.20;97.30;;;;;;4965504;28;20434;-89
2022/08/26 08:51:15;;;;;;;8.30;4.40;;;24.30;97.30;;;;;;4875233;28;20580;-89
2022/08/26 08:53:55;;;;;;;4.60;4.30;;;24.40;97.30;;;;;;4901954;28;20431;-89
2022/08/26 09:00:35;;;;;;;8.70;5.13;;;24.70;97.30;;;;;;5028277;28;20435;-89
2022/08/26 09:03:45;;;;;;;5.67;3.67;;;24.90;97.30;;;;;;4928899;28;20420;-89
2022/08/26 09:09:45;;;;;;;9.43;6.23;;;25.20;97.30;;;;;;4960577;28;20522;-89
2022/08/26 09:12:47;;;;;;;;;;;;;;;;;;;;;
2022/08/26 09:15:54;;;;;;;8.43;3.70;;;25.60;97.30;;;;;;4950259;28;20429;-89
2022/08/26 09:18:44;;;;;;;14.27;5.27;;;25.70;97.30;;;;;;4964997;28;20438;-89
2022/08/26 09:21:24;;;;;;;8.00;4.80;;;25.80;97.30;;;;;;4948686;28;20956;-89
2022/08/26 09:24:15;;;;;;;6.43;3.97;;;25.90;97.30;;;;;;4965377;28;20415;-88
2022/08/26 09:27:04;;;;;;;8.43;5.13;;;25.90;97.30;;;;;;4938859;28;20415;-89
2022/08/26 09:29:45;;;;;;;11.33;6.50;;;26.00;97.30;;;;;;4875066;28;20433;-88
2022/08/26 09:32:25;;;;;;;9.13;6.07;;;26.10;97.30;;;;;;4963187;28;20484;-87
2022/08/26 09:35:46;;;;;;;8.00;5.90;;;26.20;97.30;;;;;;5032760;28;20415;-88
2022/08/26 09:38:55;;;;;;;7.83;4.60;;;26.20;97.30;;;;;;4874039;28;20485;-88
2022/08/26 09:42:03;;;;;;;7.77;3.80;;;26.30;97.30;;;;;;4881403;29;20565;-89
2022/08/26 09:45:15;;;;;;;14.33;4.97;;;26.40;97.30;;;;;;4944339;28;20794;-88
2022/08/26 09:47:55;;;;;;;12.53;6.20;;;26.50;97.30;;;;;;4882800;29;20591;-88
2022/08/26 09:50:35;;;;;;;6.27;4.27;;;26.60;97.30;;;;;;4961026;28;20490;-88
2022/08/26 09:53:23;;;;;;;7.97;3.93;;;26.70;97.30;;;;;;4929483;28;20998;-88
2022/08/26 09:56:24;;;;;;;9.57;6.10;;;26.80;97.30;;;;;;4929665;28;20518;-88
2022/08/26 09:59:23;;;;;;;7.27;3.97;;;26.90;97.30;;;;;;4929101;28;20981;-87
2022/08/26 10:02:13;;;;;;;4.67;4.33;;;27.00;97.30;;;;;;4889803;28;20422;-87
2022/08/26 10:11:55;;;;;;;12.13;4.80;;;27.20;97.30;;;;;;4886570;29;21074;-88
2022/08/26 10:14:52;;;;;;;8.27;5.37;;;27.30;97.30;;;;;;4906586;28;20420;-88
2022/08/26 10:17:42;;;;;;;7.50;3.70;;;27.40;97.30;;;;;;4927346;28;20420;-88
2022/08/26 10:20:23;;;;;;;5.97;3.83;;;27.60;97.30;;;;;;4964824;28;20443;-87
2022/08/26 10:23:23;;;;;;;5.70;4.07;;;27.80;97.30;;;;;;4948619;28;20478;-87
2022/08/26 10:26:04;;;;;;;10.53;4.30;;;27.90;97.30;;;;;;4932543;28;20428;-87
2022/08/26 10:28:46;;;;;;;6.67;3.73;;;28.10;97.30;;;;;;4964515;28;20468;-88
2022/08/26 10:31:35;;;;;;;4.53;3.13;;;28.20;97.30;;;;;;4964047;28;20482;-88
2022/08/26 10:34:00;;;;;;;12.60;4.37;;;28.20;96.20;;;;;;4964330;28;20426;-88
2022/08/26 10:36:48;;;;;;;8.67;3.27;;;28.10;96.10;;;;;;4964314;28;20799;-87
2022/08/26 10:39:20;;;;;;;11.50;4.70;;;28.00;94.80;;;;;;4964869;28;20708;-87
2022/08/26 10:41:49;;;;;;;6.03;3.97;;;27.90;95.80;;;;;;4986786;28;20444;-88
2022/08/26 10:44:17;;;;;;;2.30;2.10;;;27.90;96.10;;;;;;4986660;28;20440;-89
2022/08/26 10:47:04;;;;;;;3.17;2.27;;;28.00;96.90;;;;;;4986665;28;20920;-87
2022/08/26 10:49:30;;;;;;;3.00;2.50;;;28.20;96.20;;;;;;4970322;28;20834;-87
2022/08/26 10:52:06;;;;;;;2.30;2.10;;;28.30;94.70;;;;;;4987054;28;20457;-88
2022/08/26 10:54:43;;;;;;;5.87;3.40;;;28.30;93.50;;;;;;4971825;28;20171;-87
2022/08/26 10:57:23;;;;;;;7.33;4.90;;;28.40;93.20;;;;;;4970241;28;20428;-88
2022/08/26 11:01:40;;;;;;;8.43;2.60;;;28.50;93.10;;;;;;4986448;28;20818;-87
2022/08/26 11:02:54;;;;;;;11.30;4.00;;;28.60;92.20;;;;;;4971657;28;20517;-87
2022/08/26 11:05:22;;;;;;;20.50;3.27;;;28.80;92.40;;;;;;4971657;28;20410;-87
2022/08/26 11:07:53;;;;;;;5.77;2.37;;;29.00;91.20;;;;;;4968020;28;20419;-87
2022/08/26 11:10:18;;;;;;;8.00;2.57;;;29.00;90.20;;;;;;4966937;28;20612;-88
2022/08/26 11:12:44;;;;;;;3.50;2.40;;;29.10;89.90;;;;;;4951021;28;20913;-87
2022/08/26 11:15:19;;;;;;;3.77;2.60;;;29.10;89.10;;;;;;4950936;28;20812;-87
2022/08/26 11:17:44;;;;;;;4.10;3.53;;;29.20;89.20;;;;;;4950156;28;20262;-87
2022/08/26 11:20:43;;;;;;;3.13;2.00;;;29.30;89.90;;;;;;4950701;28;20565;-87
2022/08/26 11:23:12;;;;;;;3.00;2.40;;;29.40;89.80;;;;;;4951954;28;20183;-87
2022/08/26 11:26:11;;;;;;;5.63;2.13;;;29.60;87.70;;;;;;4952037;29;20415;-87
2022/08/26 11:28:49;;;;;;;7.20;2.70;;;29.80;87.00;;;;;;4966493;28;20442;-87
2022/08/26 11:31:23;;;;;;;4.07;1.93;;;30.00;86.70;;;;;;4951571;28;20466;-86
2022/08/26 11:34:12;;;;;;;3.17;2.83;;;30.20;86.00;;;;;;4950424;28;20917;-86
2022/08/26 11:36:46;;;;;;;4.47;2.13;;;30.30;87.00;;;;;;4951759;28;20575;-86
2022/08/26 11:39:34;;;;;;;6.97;3.97;;;30.40;87.50;;;;;;4952047;28;20521;-87
2022/08/26 11:42:36;;;;;;;3.87;3.13;;;30.40;86.80;;;;;;4968141;28;20476;-86
2022/08/26 11:45:16;;;;;;;16.53;3.67;;;30.20;86.60;;;;;;4966324;28;20810;-87
2022/08/26 11:47:41;;;;;;;12.33;2.50;;;29.90;87.30;;;;;;4967885;28;20925;-87
2022/08/26 11:50:15;;;;;;;6.30;2.53;;;29.70;87.80;;;;;;4966160;28;20486;-87
2022/08/26 11:52:52;;;;;;;3.60;2.90;;;29.50;89.00;;;;;;4951729;28;20183;-87
2022/08/26 11:55:17;;;;;;;8.60;2.57;;;29.20;89.70;;;;;;4950266;28;20837;-87
2022/08/26 11:57:46;;;;;;;6.30;3.47;;;29.00;90.30;;;;;;4966450;28;20906;-88
2022/08/26 12:00:19;;;;;;;3.30;2.57;;;28.70;90.80;;;;;;4966281;28;20183;-87
2022/08/26 12:02:45;;;;;;;7.70;3.10;;;28.50;91.30;;;;;;4950390;28;20522;-87
2022/08/26 12:05:17;;;;;;;5.87;2.80;;;28.40;91.70;;;;;;4950382;28;20518;-87
2022/08/26 12:07:48;;;;;;;2.90;2.60;;;28.20;92.00;;;;;;4966345;28;20671;-88
2022/08/26 12:10:29;;;;;;;2.30;1.63;;;28.00;92.20;;;;;;4966344;28;20544;-88
2022/08/26 12:12:57;;;;;;;4.10;2.20;;;27.70;93.70;;;;;;4951256;28;20421;-88
2022/08/26 12:15:24;;;;;;;3.70;2.13;;;27.40;95.30;;;;;;4965832;28;20419;-87
2022/08/26 12:17:49;;;;;;;17.23;3.67;;;27.10;96.30;;;;;;4965995;28;20437;-87
2022/08/26 12:20:44;;;;;;;3.20;1.80;;;26.70;97.30;;;;;;4965543;28;20423;-87
2022/08/26 12:23:40;;;;;;;10.30;1.90;;;26.40;97.30;;;;;;4965770;28;20237;-87
2022/08/26 12:26:08;;;;;;;4.30;2.33;;;26.10;97.30;;;;;;4948992;28;20422;-86
2022/08/26 12:28:42;;;;;;;11.50;2.40;;;25.70;97.30;;;;;;4949427;28;20435;-86
2022/08/26 12:31:08;;;;;;;8.33;2.40;;;25.50;97.30;;;;;;4949823;28;20825;-87
2022/08/26 12:33:35;;;;;;;2.97;2.20;;;25.30;97.30;;;;;;4950563;28;20420;-87
2022/08/26 12:36:01;;;;;;;3.87;2.57;;;25.20;97.30;;;;;;4965642;28;20237;-86
2022/08/26 12:38:28;;;;;;;2.50;2.10;;;25.00;97.30;;;;;;4965532;28;20443;-86
2022/08/26 12:40:55;;;;;;;2.63;1.87;;;24.90;97.30;;;;;;4982795;28;20418;-87
2022/08/26 12:43:44;;;;;;;4.57;3.23;;;24.70;97.30;;;;;;4984804;28;20426;-87
2022/08/26 12:46:16;;;;;;;2.30;2.13;;;24.60;97.30;;;;;;4970142;28;20406;-87
2022/08/26 12:48:46;;;;;;;3.73;3.53;;;24.60;97.30;;;;;;4969781;28;20457;-86
2022/08/26 12:51:23;;;;;;;2.57;2.30;;;24.50;97.30;;;;;;4969741;28;20538;-86
2022/08/26 12:53:49;;;;;;;15.30;1.90;;;24.40;97.30;;;;;;4968796;28;20929;-87
2022/08/26 12:56:26;;;;;;;3.33;3.10;;;24.40;97.30;;;;;;4981588;28;20518;-87
2022/08/26 12:59:17;;;;;;;9.03;2.87;;;24.30;97.30;;;;;;4981673;28;20201;-87
2022/08/26 13:01:44;;;;;;;3.70;3.10;;;24.30;97.30;;;;;;4981509;28;20473;-87
2022/08/26 13:04:31;;;;;;;3.90;3.70;;;24.30;97.30;;;;;;4981635;28;20415;-87
2022/08/26 13:07:21;;;;;;;3.93;3.00;;;24.30;97.30;;;;;;4949181;28;20449;-87
2022/08/26 13:09:47;;;;;;;5.03;2.20;;;24.30;97.30;;;;;;4965136;28;20928;-87
2022/08/26 13:12:30;;;;;;;7.93;3.07;;;24.30;97.30;;;;;;4965022;28;20561;-87
2022/08/26 13:14:59;;;;;;;4.17;2.90;;;24.30;97.30;;;;;;4964772;28;20431;-87
2022/08/26 13:17:26;;;;;;;3.83;3.60;;;24.40;97.30;;;;;;4965042;28;20418;-87
2022/08/26 13:19:52;;;;;;;5.80;3.77;;;24.40;97.30;;;;;;4950152;28;20729;-87
2022/08/26 13:22:23;;;;;;;5.73;2.63;;;24.40;97.30;;;;;;4965161;28;20422;-87
2022/08/26 13:24:50;;;;;;;8.63;3.17;;;24.30;97.30;;;;;;5032934;28;20171;-85
2022/08/26 13:27:19;;;;;;;9.70;4.13;;;24.30;97.30;;;;;;4950484;28;20411;-87
2022/08/26 13:29:45;;;;;;;6.97;5.00;;;24.30;97.30;;;;;;4965045;28;20439;-86
2022/08/26 13:32:11;;;;;;;4.77;2.53;;;24.30;97.30;;;;;;4964832;28;20846;-86
2022/08/26 13:34:37;;;;;;;6.87;4.90;;;24.30;97.30;;;;;;4964701;28;20451;-86
2022/08/26 13:37:03;;;;;;;5.43;3.30;;;24.30;97.30;;;;;;4964811;28;20179;-86
2022/08/26 13:39:29;;;;;;;6.00;3.53;;;24.30;97.30;;;;;;4964403;28;20471;-87
2022/08/26 13:41:54;;;;;;;4.90;3.33;;;24.30;97.30;;;;;;4963738;28;20512;-87
2022/08/26 13:44:22;;;;;;;12.30;3.50;;;24.30;97.30;;;;;;4980952;28;20547;-86
2022/08/26 13:46:55;;;;;;;3.27;2.53;;;24.30;97.30;;;;;;4981153;28;20179;-87
2022/08/26 13:49:21;;;;;;;4.03;2.70;;;24.20;97.30;;;;;;4981133;28;20471;-87
2022/08/26 13:51:47;;;;;;;4.13;3.23;;;24.20;97.30;;;;;;4948878;29;20489;-87
2022/08/26 13:54:13;;;;;;;6.47;3.77;;;24.20;97.30;;;;;;4981001;28;20431;-87
2022/08/26 13:56:38;;;;;;;7.40;2.90;;;24.20;97.30;;;;;;4948609;28;20183;-85
2022/08/26 13:59:05;;;;;;;6.40;2.40;;;24.20;97.30;;;;;;4980729;28;20195;-87
2022/08/26 14:01:31;;;;;;;5.07;3.00;;;24.20;97.30;;;;;;5072968;22;20231;-85
2022/08/26 14:03:57;;;;;;;3.50;1.93;;;24.20;97.30;;;;;;5062496;28;20443;-84
2022/08/26 14:06:23;;;;;;;11.00;2.97;;;24.20;97.30;;;;;;5063428;28;20837;-85
2022/08/26 14:08:49;;;;;;;10.93;3.40;;;24.20;97.30;;;;;;5050518;28;20179;-85